Time;durP1;ratioP1;P1;durP2;ratioP2;P2;SDS_P1;SDS_P2;PMS_P1;PMS_P2;Temp;Humidity;BMP_temperature;BMP_pressure;BME280_temperature;BME280_humidity;BME280_pressure;Samples;Min_cycle;Max_cycle;Signal;HPM_P1;HPM_P2
2022/01/04 07:12:42;;;;;;;5.47;4.28;;;;;;;4.26;100.00;99106.59;1711204;82;21153;-43
2022/01/04 07:15:09;;;;;;;6.80;4.28;;;;;;;4.27;100.00;99109.17;1692039;84;21590;-43
2022/01/04 07:17:41;;;;;;;5.47;3.80;;;;;;;4.27;100.00;99105.30;1658091;85;21479;-38
2022/01/04 07:20:10;;;;;;;10.48;4.83;;;;;;;4.30;100.00;99107.48;1660307;85;21001;-36
2022/01/04 07:22:38;;;;;;;8.25;5.08;;;;;;;4.32;100.00;99099.28;1660020;85;21021;-37
2022/01/04 07:25:05;;;;;;;5.80;4.75;;;;;;;4.34;100.00;99109.21;1661566;85;21009;-37
2022/01/04 07:27:34;;;;;;;5.97;4.85;;;;;;;4.35;100.00;99110.94;1648442;87;21114;-43
2022/01/04 07:30:01;;;;;;;5.42;4.20;;;;;;;4.36;100.00;99113.99;1685508;83;20977;-37
2022/01/04 07:32:28;;;;;;;12.28;7.47;;;;;;;4.37;100.00;99122.20;1651727;86;21013;-43
2022/01/04 07:34:56;;;;;;;7.28;5.45;;;;;;;4.39;100.00;99122.63;1651753;85;21388;-36
2022/01/04 07:37:23;;;;;;;6.08;4.50;;;;;;;4.43;100.00;99137.34;1637892;86;21596;-43
2022/01/04 07:39:51;;;;;;;5.15;4.45;;;;;;;4.48;100.00;99119.24;1634373;87;21009;-37
2022/01/04 07:42:19;;;;;;;5.00;4.20;;;;;;;4.53;100.00;99131.80;1638866;86;21061;-44
2022/01/04 07:44:48;;;;;;;7.12;4.87;;;;;;;4.54;100.00;99123.16;1638000;86;20945;-43
2022/01/04 07:47:14;;;;;;;6.35;4.95;;;;;;;4.58;100.00;99133.98;1640725;87;21050;-37
2022/01/04 07:49:42;;;;;;;5.35;4.12;;;;;;;4.61;100.00;99130.53;1649466;86;21581;-44
2022/01/04 07:52:09;;;;;;;6.87;4.33;;;;;;;4.65;100.00;99137.05;1698328;84;21958;-35
2022/01/04 07:54:36;;;;;;;5.40;4.72;;;;;;;4.67;100.00;99139.20;1692801;84;20998;-37
2022/01/04 07:57:03;;;;;;;8.00;4.85;;;;;;;4.69;100.00;99145.25;1655380;85;21587;-35
2022/01/04 07:59:31;;;;;;;4.17;3.77;;;;;;;4.72;100.00;99146.58;1637396;87;21034;-39
2022/01/04 08:01:58;;;;;;;8.18;4.60;;;;;;;4.73;100.00;99139.23;1635700;86;21642;-36
2022/01/04 08:04:25;;;;;;;8.58;4.92;;;;;;;4.73;100.00;99142.25;1643813;87;21492;-44
2022/01/04 08:06:51;;;;;;;7.05;4.25;;;;;;;4.73;100.00;99144.41;1640030;87;21057;-44
2022/01/04 08:09:18;;;;;;;5.03;4.35;;;;;;;4.76;100.00;99150.92;1643776;87;20978;-36
2022/01/04 08:11:45;;;;;;;4.97;4.22;;;;;;;4.83;100.00;99158.73;1641167;86;21045;-44
2022/01/04 08:14:13;;;;;;;6.62;4.55;;;;;;;4.91;100.00;99154.44;1680724;84;21025;-37
2022/01/04 08:16:41;;;;;;;6.60;5.08;;;;;;;4.95;100.00;99147.12;1696296;84;21053;-43
2022/01/04 08:19:07;;;;;;;5.80;4.37;;;;;;;4.97;100.00;99147.55;1693101;83;21388;-44
2022/01/04 08:21:34;;;;;;;5.90;4.80;;;;;;;5.00;100.00;99154.05;1711860;83;21427;-37
2022/01/04 08:24:01;;;;;;;6.00;4.08;;;;;;;5.04;100.00;99162.30;1720187;83;20997;-43
2022/01/04 08:26:29;;;;;;;7.78;4.20;;;;;;;5.07;100.00;99154.94;1720570;83;21032;-43
2022/01/04 08:28:55;;;;;;;6.80;4.72;;;;;;;5.15;100.00;99153.66;1717611;83;20993;-43
2022/01/04 08:31:24;;;;;;;5.87;3.92;;;;;;;5.24;100.00;99154.57;1717724;83;21115;-43
2022/01/04 08:33:53;;;;;;;5.62;3.90;;;;;;;5.34;100.00;99168.02;1705433;83;20965;-43
2022/01/04 08:36:21;;;;;;;6.35;3.62;;;;;;;5.42;100.00;99168.46;1705326;84;21594;-37
2022/01/04 08:38:48;;;;;;;5.67;3.90;;;;;;;5.47;100.00;99163.72;1697137;83;20994;-37
2022/01/04 08:41:15;;;;;;;5.25;3.67;;;;;;;5.47;100.00;99145.56;1676479;84;21077;-43
2022/01/04 08:43:41;;;;;;;4.80;3.60;;;;;;;5.46;100.00;99154.64;1705380;84;20980;-44
2022/01/04 08:46:08;;;;;;;8.03;3.83;;;;;;;5.51;100.00;99157.69;1674087;85;21128;-43
2022/01/04 08:48:35;;;;;;;5.37;3.77;;;;;;;5.60;100.00;99146.01;1700246;84;20950;-44
2022/01/04 08:51:02;;;;;;;4.42;3.40;;;;;;;5.68;100.00;99156.83;1700437;84;21075;-42
2022/01/04 08:53:28;;;;;;;5.58;3.98;;;;;;;5.74;100.00;99157.73;1698555;84;21477;-36
2022/01/04 08:55:57;;;;;;;5.53;3.60;;;;;;;5.78;100.00;99168.52;1669335;85;21684;-36
2022/01/04 08:58:24;;;;;;;8.63;3.60;;;;;;;5.83;100.00;99164.64;1648199;87;20991;-36
2022/01/04 09:00:50;;;;;;;6.72;4.50;;;;;;;5.87;99.36;99161.20;1659415;86;21020;-36
2022/01/04 09:03:18;;;;;;;6.37;5.20;;;;;;;5.88;98.54;99161.63;1648192;86;21044;-36
2022/01/04 09:09:37;;;;;;;6.15;4.75;;;;;;;5.94;97.89;99159.06;1775449;78;23094;-41
2022/01/04 09:12:05;;;;;;;6.15;4.30;;;;;;;5.89;97.29;99164.66;1735319;81;21012;-36
2022/01/04 09:20:05;;;;;;;7.08;4.78;;;;;;;5.82;97.54;99175.47;1727738;82;21563;-36
2022/01/04 09:22:32;;;;;;;8.10;5.42;;;;;;;5.82;97.27;99177.20;1693387;83;21056;-43
2022/01/04 09:24:58;;;;;;;6.30;5.30;;;;;;;5.81;97.09;99182.82;1679834;84;21010;-36
2022/01/04 09:27:25;;;;;;;7.97;4.58;;;;;;;5.80;96.86;99186.72;1693133;83;21971;-36
2022/01/04 09:29:52;;;;;;;7.80;4.05;;;;;;;5.77;96.66;99188.00;1691865;84;21594;-42
2022/01/04 09:32:19;;;;;;;9.35;5.20;;;;;;;5.77;96.92;99172.42;1691495;84;21085;-42
2022/01/04 09:34:45;;;;;;;6.58;4.17;;;;;;;5.78;97.03;99169.83;1682760;85;21446;-36
2022/01/04 09:37:12;;;;;;;12.98;7.25;;;;;;;5.78;96.41;99177.61;1671630;85;21053;-36
2022/01/04 09:39:38;;;;;;;6.47;4.80;;;;;;;5.76;96.17;99176.75;1679685;83;21078;-42
2022/01/04 09:42:08;;;;;;;6.58;4.30;;;;;;;5.77;96.14;99173.29;1683676;83;21088;-42
2022/01/04 09:44:35;;;;;;;5.87;4.40;;;;;;;5.77;96.06;99181.08;1688685;84;21455;-43
2022/01/04 09:47:04;;;;;;;10.55;5.12;;;;;;;5.77;96.16;99175.89;1681102;84;21061;-36
2022/01/04 09:49:31;;;;;;;8.18;4.47;;;;;;;5.76;96.02;99191.03;1689403;84;21379;-36
2022/01/04 09:51:58;;;;;;;7.05;4.60;;;;;;;5.75;96.00;99185.41;1693510;83;21128;-43
2022/01/04 09:54:27;;;;;;;8.85;5.47;;;;;;;5.74;95.62;99183.69;1691860;84;20968;-43
2022/01/04 09:56:54;;;;;;;11.68;6.70;;;;;;;5.75;95.60;99187.14;1694170;83;21047;-43
2022/01/04 09:59:21;;;;;;;13.80;6.37;;;;;;;5.79;95.63;99183.23;1680192;84;21023;-37
2022/01/04 10:02:00;;;;;;;8.48;4.45;;;;;;;5.85;95.56;99183.23;1679115;84;21064;-37
2022/01/04 10:04:17;;;;;;;7.95;4.17;;;;;;;5.92;94.93;99188.50;1675113;85;21080;-37
2022/01/04 10:07:04;;;;;;;7.90;4.15;;;;;;;5.97;94.71;99198.03;1686107;84;21087;-37
2022/01/04 10:09:48;;;;;;;9.63;5.03;;;;;;;6.01;94.24;99194.98;1667930;85;21075;-37
2022/01/04 10:12:17;;;;;;;7.35;4.87;;;;;;;6.01;94.13;99197.14;1678599;85;21060;-37
2022/01/04 10:14:46;;;;;;;7.20;4.05;;;;;;;6.07;94.15;99198.45;1722170;82;21458;-43
2022/01/04 10:17:23;;;;;;;12.80;6.28;;;;;;;6.21;93.63;99182.89;1721171;82;21029;-43
2022/01/04 10:19:56;;;;;;;6.67;4.60;;;;;;;6.36;92.78;99182.00;1716200;83;21049;-43
2022/01/04 10:22:34;;;;;;;6.67;4.22;;;;;;;6.47;91.25;99178.95;1716026;82;21041;-37
2022/01/04 10:25:07;;;;;;;8.28;4.15;;;;;;;6.48;90.92;99175.48;1709829;83;20994;-43
2022/01/04 10:27:50;;;;;;;7.50;3.80;;;;;;;6.45;90.83;99178.11;1679588;84;21580;-43
2022/01/04 10:30:29;;;;;;;5.47;4.40;;;;;;;6.45;90.81;99169.45;1682258;85;20973;-37
2022/01/04 10:32:59;;;;;;;6.25;4.22;;;;;;;6.49;90.60;99175.91;1716017;83;21651;-37
2022/01/04 10:35:43;;;;;;;8.43;4.10;;;;;;;6.55;90.25;99176.34;1712103;82;21058;-43
2022/01/04 10:38:24;;;;;;;12.00;7.05;;;;;;;6.69;89.81;99175.90;1675866;85;21012;-44
2022/01/04 10:41:06;;;;;;;7.17;5.95;;;;;;;7.06;89.03;99188.78;1679978;84;21130;-37
2022/01/04 10:43:55;;;;;;;8.48;4.97;;;;;;;7.38;86.46;99183.03;1708714;82;20997;-37
2022/01/04 10:46:41;;;;;;;7.05;4.65;;;;;;;7.75;84.67;99184.12;1709735;82;21205;-43
2022/01/04 10:49:20;;;;;;;7.72;4.05;;;;;;;8.15;82.80;99195.13;1708128;82;21092;-44
2022/01/04 10:52:07;;;;;;;6.85;4.75;;;;;;;8.48;79.76;99180.99;1712882;82;21686;-37
2022/01/04 10:54:33;;;;;;;11.38;4.80;;;;;;;8.72;77.70;99186.41;1680322;85;21044;-44
2022/01/04 10:57:06;;;;;;;6.83;4.10;;;;;;;8.87;76.38;99197.54;1714618;82;21080;-37
2022/01/04 10:59:33;;;;;;;8.35;5.30;;;;;;;8.97;75.46;99190.91;1711276;83;21041;-37
2022/01/04 11:02:02;;;;;;;8.50;5.03;;;;;;;9.16;75.08;99179.84;1682322;84;21144;-38
2022/01/04 11:04:29;;;;;;;13.43;7.80;;;;;;;9.31;74.06;99179.64;1712700;82;21056;-44
2022/01/04 11:07:00;;;;;;;10.05;4.72;;;;;;;9.39;73.79;99182.14;1712911;82;21541;-43
2022/01/04 11:09:27;;;;;;;12.70;5.30;;;;;;;9.47;72.09;99189.45;1681635;85;21040;-43
2022/01/04 11:11:55;;;;;;;25.48;9.25;;;;;;;9.48;71.86;99184.65;1712685;83;21765;-44
2022/01/04 11:14:22;;;;;;;11.55;5.72;;;;;;;9.56;72.24;99182.78;1711488;83;21021;-37
2022/01/04 11:16:50;;;;;;;10.28;5.97;;;;;;;9.68;70.95;99193.50;1680548;85;21492;-44
2022/01/04 11:19:19;;;;;;;6.45;3.80;;;;;;;9.83;70.91;99190.69;1712612;83;21085;-43
2022/01/04 11:21:45;;;;;;;5.00;3.37;;;;;;;10.07;69.19;99197.73;1661029;85;21092;-37
2022/01/04 11:24:16;;;;;;;8.03;3.62;;;;;;;10.22;68.19;99197.52;1681195;85;20997;-37
2022/01/04 11:26:45;;;;;;;8.65;4.72;;;;;;;10.33;66.87;99193.45;1714018;82;21591;-43
2022/01/04 11:29:16;;;;;;;8.30;4.08;;;;;;;10.31;66.39;99205.22;1709232;83;20964;-37
2022/01/04 11:32:08;;;;;;;10.30;6.17;;;;;;;10.17;67.09;99202.39;1714871;83;21040;-37
2022/01/04 11:35:16;;;;;;;7.00;3.75;;;;;;;10.07;67.79;99191.20;1713341;83;21013;-37
2022/01/04 11:37:57;;;;;;;10.20;4.85;;;;;;;10.21;67.39;99199.71;1713220;82;21473;-43
2022/01/04 11:40:26;;;;;;;10.00;4.92;;;;;;;10.45;66.26;99205.02;1714468;82;21326;-37
2022/01/04 11:42:55;;;;;;;5.10;3.50;;;;;;;10.59;64.57;99223.08;1709773;82;21103;-37
2022/01/04 11:45:44;;;;;;;6.85;3.80;;;;;;;10.69;64.15;99198.49;1707824;82;21028;-37
2022/01/04 11:48:40;;;;;;;9.75;3.02;;;;;;;10.73;63.56;99203.23;1717005;83;21182;-44
2022/01/04 11:51:10;;;;;;;8.13;3.00;;;;;;;10.74;63.91;99194.49;1715633;82;21127;-37
2022/01/04 11:53:37;;;;;;;5.05;3.10;;;;;;;10.80;64.09;99204.84;1697683;83;21028;-44
2022/01/04 11:56:06;;;;;;;6.05;3.15;;;;;;;10.99;63.77;99206.67;1697118;83;21053;-38
2022/01/04 11:58:50;;;;;;;7.15;4.33;;;;;;;11.23;63.03;99195.72;1719573;82;21124;-37
2022/01/04 12:01:27;;;;;;;9.45;4.70;;;;;;;11.32;62.04;99200.78;1714336;81;21635;-37
2022/01/04 12:03:54;;;;;;;11.90;4.80;;;;;;;11.35;62.09;99199.84;1721786;82;21092;-44
2022/01/04 12:06:21;;;;;;;11.85;5.42;;;;;;;11.38;61.39;99207.20;1662022;85;21051;-44
2022/01/04 12:08:51;;;;;;;6.30;3.55;;;;;;;11.04;61.37;99216.16;1717866;81;21006;-44
2022/01/04 12:11:30;;;;;;;7.78;4.12;;;;;;;10.38;62.87;99207.31;1728717;81;21731;-43
2022/01/04 12:14:02;;;;;;;9.33;5.05;;;;;;;9.78;65.03;99226.45;1685864;83;21542;-37
2022/01/04 12:16:43;;;;;;;9.43;4.80;;;;;;;9.45;66.89;99229.09;1663135;85;21087;-43
2022/01/04 12:19:15;;;;;;;8.10;3.70;;;;;;;9.39;67.72;99216.52;1660750;85;21006;-44
2022/01/04 12:21:48;;;;;;;9.28;3.83;;;;;;;9.31;67.76;99233.59;1684753;84;21283;-44
2022/01/04 12:24:23;;;;;;;6.97;3.55;;;;;;;9.17;68.44;99216.80;1687176;83;21380;-37
2022/01/04 12:27:11;;;;;;;7.20;3.55;;;;;;;9.24;67.87;99225.42;1686494;84;21121;-44
2022/01/04 12:29:38;;;;;;;7.12;3.30;;;;;;;9.18;67.97;99223.74;1693399;84;21024;-37
2022/01/04 12:32:08;;;;;;;7.58;3.30;;;;;;;9.25;67.87;99219.31;1673356;85;21002;-39
2022/01/04 12:34:51;;;;;;;5.08;2.65;;;;;;;9.38;67.51;99227.41;1667758;85;21048;-37
2022/01/04 12:44:01;;;;;;;10.82;3.50;;;;;;;9.77;67.16;99236.94;1796846;78;23005;-36
2022/01/04 12:46:36;;;;;;;6.55;3.72;;;;;;;9.79;66.64;99243.85;1726562;80;21046;-37
2022/01/04 12:49:11;;;;;;;15.55;6.67;;;;;;;9.80;66.65;99248.22;1704656;83;20977;-43
2022/01/04 12:51:53;;;;;;;15.45;5.22;;;;;;;9.57;66.90;99242.43;1698472;84;21083;-36
2022/01/04 12:54:22;;;;;;;;;;;;;;;9.16;68.04;99237.67;1599078;88;21070;-43
2022/01/04 12:57:00;;;;;;;20.88;6.60;;;;;;;8.73;69.59;99235.51;1595134;88;20448;-43
2022/01/04 12:59:33;;;;;;;12.50;4.95;;;;;;;8.39;70.98;99243.61;1590381;88;21523;-36
2022/01/04 13:02:19;;;;;;;13.45;5.12;;;;;;;8.08;72.54;99239.48;1595618;88;21063;-42
2022/01/04 13:04:50;;;;;;;9.80;4.03;;;;;;;7.93;73.63;99246.94;1591374;88;21094;-36
2022/01/04 13:07:31;;;;;;;7.17;3.33;;;;;;;7.98;74.14;99247.34;1590317;90;21106;-37
2022/01/04 13:10:09;;;;;;;4.05;2.80;;;;;;;8.12;74.00;99250.31;1591780;88;21063;-36
2022/01/04 13:12:47;;;;;;;6.83;3.75;;;;;;;8.26;73.66;99243.25;1595929;88;21072;-36
2022/01/04 13:15:16;;;;;;;8.60;4.00;;;;;;;8.32;73.20;99252.33;1612825;88;21545;-37
2022/01/04 13:17:48;;;;;;;8.20;3.80;;;;;;;8.29;73.17;99248.42;1595671;88;21128;-38
2022/01/04 13:20:28;;;;;;;8.90;3.87;;;;;;;8.28;73.33;99251.47;1590531;90;21019;-43
2022/01/04 13:22:55;;;;;;;6.42;3.50;;;;;;;8.37;73.24;99257.55;1590517;88;21150;-38
2022/01/04 13:25:23;;;;;;;9.93;4.75;;;;;;;8.43;72.70;99266.18;1590066;89;21050;-37
2022/01/04 13:27:50;;;;;;;11.18;4.55;;;;;;;8.44;72.54;99265.73;1603980;88;21184;-45
2022/01/04 13:30:25;;;;;;;8.00;4.42;;;;;;;8.37;72.59;99269.27;1616812;85;21053;-37
2022/01/04 13:32:59;;;;;;;7.25;3.90;;;;;;;8.24;72.79;99271.94;1717424;81;21596;-37
2022/01/04 13:35:37;;;;;;;21.02;5.58;;;;;;;8.11;73.13;99270.27;1685018;84;20999;-37
2022/01/04 13:38:06;;;;;;;9.95;4.60;;;;;;;7.97;73.49;99278.61;1679350;84;21014;-37
2022/01/04 13:40:35;;;;;;;8.83;4.62;;;;;;;7.82;73.87;99273.48;1712024;83;21378;-44
2022/01/04 13:43:16;;;;;;;9.68;5.50;;;;;;;7.64;74.35;99279.64;1693070;83;21575;-38
2022/01/04 13:45:50;;;;;;;18.65;7.35;;;;;;;7.44;74.95;99284.49;1683306;85;21541;-37
2022/01/04 13:48:29;;;;;;;12.93;7.28;;;;;;;7.22;75.68;99281.52;1683235;85;21120;-38
2022/01/04 13:51:15;;;;;;;9.68;5.50;;;;;;;7.01;76.48;99277.66;1718216;83;21081;-37
2022/01/04 13:53:50;;;;;;;11.20;5.28;;;;;;;6.80;77.31;99288.53;1717878;83;21109;-36
2022/01/04 13:56:19;;;;;;;11.43;6.30;;;;;;;6.59;78.15;99295.03;1683215;85;21541;-37
2022/01/04 13:58:51;;;;;;;20.97;9.63;;;;;;;6.42;78.90;99295.45;1699795;82;21054;-36
2022/01/04 14:01:41;;;;;;;21.70;12.10;;;;;;;6.27;79.54;99301.08;1722703;82;21076;-43
2022/01/04 14:04:20;;;;;;;42.20;23.50;;;;;;;6.16;80.18;99309.28;1720311;82;21571;-43
2022/01/04 14:06:55;;;;;;;42.08;25.45;;;;;;;6.06;80.92;99319.20;1702135;82;21568;-37
2022/01/04 14:09:33;;;;;;;36.00;20.48;;;;;;;5.99;81.59;99320.92;1703539;82;20982;-43
2022/01/04 14:12:07;;;;;;;31.05;17.45;;;;;;;5.98;82.15;99319.62;1714977;82;21060;-36
2022/01/04 14:14:48;;;;;;;25.00;13.25;;;;;;;5.99;82.73;99331.73;1737720;82;21772;-36
2022/01/04 14:17:23;;;;;;;77.50;41.00;;;;;;;5.97;83.19;99336.04;1717336;80;21132;-36
2022/01/04 14:19:59;;;;;;;39.35;20.17;;;;;;;5.95;83.72;99335.18;1718137;83;21684;-43
2022/01/04 14:22:28;;;;;;;32.60;17.42;;;;;;;5.91;84.04;99334.29;1721886;82;21105;-38
2022/01/04 14:25:03;;;;;;;51.00;28.67;;;;;;;5.87;84.29;99339.02;1732289;82;20997;-37
2022/01/04 14:27:39;;;;;;;60.23;34.23;;;;;;;5.77;84.47;99352.82;1717609;83;21081;-42
2022/01/04 14:30:16;;;;;;;78.00;44.33;;;;;;;5.63;84.87;99344.98;1711111;82;21097;-36
2022/01/04 14:32:49;;;;;;;18.00;10.35;;;;;;;5.44;85.42;99337.51;1706455;80;21106;-35
2022/01/04 14:35:25;;;;;;;15.77;7.47;;;;;;;5.28;86.04;99335.72;1693786;85;21110;-36
2022/01/04 14:37:55;;;;;;;9.75;4.67;;;;;;;5.16;86.77;99337.80;1714613;83;21108;-43
2022/01/04 14:40:25;;;;;;;11.57;4.47;;;;;;;5.05;87.37;99338.16;1722268;82;21037;-42
2022/01/04 14:42:52;;;;;;;11.60;6.15;;;;;;;4.92;87.54;99328.53;1709969;83;21096;-43
2022/01/04 14:45:20;;;;;;;14.15;7.85;;;;;;;4.77;88.18;99335.34;1659761;86;21031;-43
2022/01/04 14:47:47;;;;;;;14.05;6.90;;;;;;;4.67;89.45;99336.55;1662531;86;21084;-43
2022/01/04 14:50:15;;;;;;;14.83;6.12;;;;;;;4.60;90.30;99342.55;1662732;86;21025;-42
2022/01/04 14:52:42;;;;;;;14.80;7.15;;;;;;;4.55;91.29;99350.27;1638546;85;21927;-43
